createdAt,value
2023-03-26T23:12:05.712Z,1000.17
2023-03-26T23:13:06.094Z,1000.23
2023-03-26T23:14:05.813Z,1000.23
2023-03-26T23:15:05.581Z,1000.28
2023-03-26T23:16:05.627Z,1000.26
2023-03-26T23:16:10.801Z,1000.24
2023-03-26T23:17:02.285Z,1000.32
2023-03-26T23:18:02.366Z,1000.32
2023-03-26T23:19:01.965Z,1000.30
2023-03-26T23:20:02.224Z,1000.31
2023-03-26T23:21:01.810Z,1000.34
2023-03-26T23:22:02.194Z,1000.39
2023-03-26T23:23:02.238Z,1000.38
2023-03-26T23:24:01.892Z,1000.46
2023-03-26T23:25:01.883Z,1000.45
2023-03-26T23:26:02.242Z,1000.49
2023-03-26T23:27:02.790Z,1000.55
2023-03-26T23:28:02.915Z,1000.49
2023-03-26T23:29:02.568Z,1000.58
2023-03-26T23:30:02.954Z,1000.63
2023-03-26T23:31:02.675Z,1000.58
2023-03-26T23:32:02.711Z,1000.58
2023-03-26T23:33:03.133Z,1000.68
2023-03-26T23:34:02.575Z,1000.65
2023-03-26T23:35:03.113Z,1000.75
2023-03-26T23:36:02.941Z,1000.70
2023-03-26T23:37:02.367Z,1000.72
2023-03-26T23:38:02.021Z,1000.76
2023-03-26T23:39:02.407Z,1000.77
2023-03-26T23:40:01.948Z,1000.87
2023-03-26T23:41:02.288Z,1000.90
2023-03-26T23:42:02.797Z,1000.95
2023-03-26T23:43:02.430Z,1000.99
2023-03-26T23:44:02.289Z,1001.00
2023-03-26T23:45:02.808Z,1001.00
2023-03-26T23:46:02.726Z,1001.05
2023-03-26T23:47:02.486Z,1001.12
2023-03-26T23:48:02.773Z,1001.17
2023-03-26T23:49:02.886Z,1001.19
2023-03-26T23:50:02.827Z,1001.17
2023-03-26T23:51:04.566Z,1001.27
2023-03-26T23:52:02.229Z,1001.26
2023-03-26T23:53:02.185Z,1001.26
2023-03-26T23:54:02.077Z,1001.33
2023-03-26T23:55:02.212Z,1001.31
2023-03-26T23:56:02.282Z,1001.34
2023-03-26T23:57:01.977Z,1001.41
2023-03-26T23:58:02.043Z,1001.33
2023-03-26T23:59:02.295Z,1001.38
